Dauntless Aviation
Greetings, Guest! To participate, [sign up for a free account] or [log in]
Airports Europe Germany


Altdorf-Wallburg, GERMANY

Airport Info


Latitude / Longitude: 48°16'11"N / 7°50'31"E
  48°16.188'N / 7°50.532'E
  48.2698 / 7.8422
Satellite photo at:
Airport distance calculator
Weather Reports


18.2nm NW
LFST 040300Z AUTO VRB03KT 4200 RA BR FEW008/// SCT044/// BKN060/// ///TCU 13/12 Q1017
32.3nm N
EDSB 040250Z 20005KT 7000 RA BKN036 12/11 Q1016


18.2nm NW
TAF LFST 032300Z 0400/0424 32005KT 9999 FEW030 BKN060 BECMG 0400/0403 16005KT -RA PROB30 TEMPO 0401/0406 4000 RA BKN009 BECMG 0407/0410 NSW BECMG 0417/0420 CAVOK
32.3nm N
TAF EDSB 031700Z 0318/0418 VRB03KT 9999 BKN040 BECMG 0401/0403 RA TEMPO 0403/0412 4500 RA BR BKN012 SCT030TCU BECMG 0412/0414 20005KT NSW


Dauntless Aviation

© 2007-2015 Dauntless Aviation, all rights reserved
Information provided via PilotNav comes from a variety of official and unofficial data sources. As errors are possible, do not use PilotNav for primary flight planning purposes. Verify any information that you receive via PilotNav with current and canonical charts and other official documents. The material in this database is subject to database copyrights held by Dauntless Aviation and may not be copied without the express permission of Dauntless Aviation - licenses for use of part of all of this data are available for purchase; enquire via the Dauntless Aviation helpdesk. A number of mechanisms and markers exist in the database to protect against and identify infringement / copyright. Automated queries against this website are stictly prohibited, and all activity is logged and analyzed.